sensor_id;sensor_type;location;lat;lon;timestamp;pressure;altitude;pressure_sealevel;temperature;humidity
6500;BME280;3283;52.330;9.772;2023-07-28T04:03:28;99711.78;;;17.38;100.00
6500;BME280;3283;52.330;9.772;2023-07-28T04:05:54;99714.63;;;17.51;100.00
6500;BME280;3283;52.330;9.772;2023-07-28T04:08:19;99714.38;;;17.55;100.00
6500;BME280;3283;52.330;9.772;2023-07-28T04:10:44;99705.16;;;17.61;100.00
6500;BME280;3283;52.330;9.772;2023-07-28T04:13:10;99713.84;;;17.65;100.00
6500;BME280;3283;52.330;9.772;2023-07-28T04:15:35;99713.59;;;17.69;100.00
6500;BME280;3283;52.330;9.772;2023-07-28T04:18:00;99712.72;;;17.69;100.00
6500;BME280;3283;52.330;9.772;2023-07-28T04:20:26;99708.28;;;17.69;100.00
6500;BME280;3283;52.330;9.772;2023-07-28T04:22:51;99717.97;;;17.70;100.00
6500;BME280;3283;52.330;9.772;2023-07-28T04:25:16;99713.09;;;17.63;100.00
6500;BME280;3283;52.330;9.772;2023-07-28T04:27:42;99719.06;;;17.66;100.00
6500;BME280;3283;52.330;9.772;2023-07-28T04:30:07;99712.03;;;17.65;100.00
6500;BME280;3283;52.330;9.772;2023-07-28T04:32:33;99724.31;;;17.68;100.00
6500;BME280;3283;52.330;9.772;2023-07-28T04:34:58;99720.69;;;17.69;100.00
6500;BME280;3283;52.330;9.772;2023-07-28T04:37:23;99714.81;;;17.64;100.00
6500;BME280;3283;52.330;9.772;2023-07-28T04:39:49;99720.78;;;17.67;100.00
6500;BME280;3283;52.330;9.772;2023-07-28T04:42:15;99726.84;;;17.71;100.00
6500;BME280;3283;52.330;9.772;2023-07-28T04:44:41;99716.09;;;17.72;100.00
6500;BME280;3283;52.330;9.772;2023-07-28T04:47:07;99723.25;;;17.72;100.00
6500;BME280;3283;52.330;9.772;2023-07-28T04:49:32;99719.28;;;17.79;100.00
6500;BME280;3283;52.330;9.772;2023-07-28T04:51:57;99722.03;;;17.77;100.00
6500;BME280;3283;52.330;9.772;2023-07-28T04:54:23;99731.63;;;17.80;100.00
6500;BME280;3283;52.330;9.772;2023-07-28T04:56:48;99734.38;;;17.78;100.00
6500;BME280;3283;52.330;9.772;2023-07-28T04:59:16;99732.16;;;17.87;100.00
6500;BME280;3283;52.330;9.772;2023-07-28T05:01:41;99746.22;;;17.89;100.00
6500;BME280;3283;52.330;9.772;2023-07-28T05:04:07;99738.94;;;17.92;100.00
6500;BME280;3283;52.330;9.772;2023-07-28T05:06:32;99743.31;;;17.93;100.00
6500;BME280;3283;52.330;9.772;2023-07-28T05:08:57;99748.28;;;17.99;100.00
6500;BME280;3283;52.330;9.772;2023-07-28T05:11:22;99744.88;;;17.97;100.00
6500;BME280;3283;52.330;9.772;2023-07-28T05:13:48;99737.34;;;18.04;100.00
6500;BME280;3283;52.330;9.772;2023-07-28T05:16:13;99742.25;;;17.96;100.00
6500;BME280;3283;52.330;9.772;2023-07-28T05:18:38;99752.91;;;17.96;100.00
6500;BME280;3283;52.330;9.772;2023-07-28T05:21:04;99748.09;;;18.02;100.00
6500;BME280;3283;52.330;9.772;2023-07-28T05:23:29;99739.25;;;18.02;100.00
6500;BME280;3283;52.330;9.772;2023-07-28T05:25:55;99748.00;;;18.04;100.00
6500;BME280;3283;52.330;9.772;2023-07-28T05:28:20;99746.38;;;18.01;100.00
6500;BME280;3283;52.330;9.772;2023-07-28T05:30:45;99761.41;;;18.02;100.00
6500;BME280;3283;52.330;9.772;2023-07-28T05:33:10;99760.97;;;18.10;100.00
6500;BME280;3283;52.330;9.772;2023-07-28T05:35:36;99753.25;;;18.05;100.00
6500;BME280;3283;52.330;9.772;2023-07-28T05:38:01;99759.09;;;17.96;100.00
6500;BME280;3283;52.330;9.772;2023-07-28T05:40:27;99766.81;;;18.01;100.00
6500;BME280;3283;52.330;9.772;2023-07-28T05:42:52;99765.03;;;18.01;100.00
6500;BME280;3283;52.330;9.772;2023-07-28T05:45:17;99771.19;;;18.02;100.00
6500;BME280;3283;52.330;9.772;2023-07-28T05:47:43;99765.72;;;18.05;100.00
6500;BME280;3283;52.330;9.772;2023-07-28T05:50:08;99764.78;;;18.06;100.00
6500;BME280;3283;52.330;9.772;2023-07-28T05:52:34;99766.22;;;18.11;100.00
6500;BME280;3283;52.330;9.772;2023-07-28T05:54:59;99762.31;;;18.17;100.00
6500;BME280;3283;52.330;9.772;2023-07-28T05:57:24;99759.22;;;18.25;100.00
6500;BME280;3283;52.330;9.772;2023-07-28T05:59:50;99764.78;;;18.36;100.00
6500;BME280;3283;52.330;9.772;2023-07-28T06:02:15;99766.13;;;18.43;100.00
6500;BME280;3283;52.330;9.772;2023-07-28T06:04:40;99753.69;;;18.44;100.00
6500;BME280;3283;52.330;9.772;2023-07-28T06:07:06;99755.72;;;18.54;100.00
6500;BME280;3283;52.330;9.772;2023-07-28T06:09:31;99759.72;;;18.61;100.00
6500;BME280;3283;52.330;9.772;2023-07-28T06:11:57;99758.94;;;18.75;100.00
6500;BME280;3283;52.330;9.772;2023-07-28T06:14:22;99765.81;;;18.63;100.00
6500;BME280;3283;52.330;9.772;2023-07-28T06:16:47;99770.72;;;18.41;100.00
6500;BME280;3283;52.330;9.772;2023-07-28T06:19:12;99784.28;;;18.36;100.00
6500;BME280;3283;52.330;9.772;2023-07-28T06:21:38;99793.59;;;18.29;100.00
6500;BME280;3283;52.330;9.772;2023-07-28T06:24:03;99792.53;;;18.32;100.00
6500;BME280;3283;52.330;9.772;2023-07-28T06:26:29;99798.75;;;18.32;100.00
6500;BME280;3283;52.330;9.772;2023-07-28T06:28:54;99801.13;;;18.37;100.00
6500;BME280;3283;52.330;9.772;2023-07-28T06:31:19;99808.16;;;18.38;100.00
6500;BME280;3283;52.330;9.772;2023-07-28T06:33:47;99800.22;;;18.52;100.00
6500;BME280;3283;52.330;9.772;2023-07-28T06:36:12;99802.63;;;18.57;100.00
6500;BME280;3283;52.330;9.772;2023-07-28T06:38:37;99806.44;;;18.69;100.00
6500;BME280;3283;52.330;9.772;2023-07-28T06:41:04;99809.66;;;18.74;100.00
6500;BME280;3283;52.330;9.772;2023-07-28T06:43:30;99803.56;;;18.72;100.00
6500;BME280;3283;52.330;9.772;2023-07-28T06:45:55;99806.72;;;18.78;100.00
6500;BME280;3283;52.330;9.772;2023-07-28T06:48:21;99814.53;;;18.81;100.00
6500;BME280;3283;52.330;9.772;2023-07-28T06:50:46;99819.44;;;18.89;100.00
6500;BME280;3283;52.330;9.772;2023-07-28T06:53:11;99814.09;;;18.89;100.00
6500;BME280;3283;52.330;9.772;2023-07-28T06:55:37;99818.28;;;19.07;100.00
6500;BME280;3283;52.330;9.772;2023-07-28T06:58:05;99821.28;;;19.17;100.00
6500;BME280;3283;52.330;9.772;2023-07-28T07:00:30;99815.66;;;19.21;100.00
6500;BME280;3283;52.330;9.772;2023-07-28T07:02:56;99818.16;;;19.25;100.00
6500;BME280;3283;52.330;9.772;2023-07-28T07:05:21;99825.72;;;19.16;100.00
6500;BME280;3283;52.330;9.772;2023-07-28T07:07:46;99820.78;;;19.10;100.00
6500;BME280;3283;52.330;9.772;2023-07-28T07:10:12;99820.38;;;19.02;100.00
6500;BME280;3283;52.330;9.772;2023-07-28T07:12:37;99827.75;;;19.13;100.00
6500;BME280;3283;52.330;9.772;2023-07-28T07:15:03;99825.19;;;19.26;100.00
6500;BME280;3283;52.330;9.772;2023-07-28T07:17:29;99830.22;;;19.30;100.00
6500;BME280;3283;52.330;9.772;2023-07-28T07:19:54;99832.13;;;19.42;100.00
6500;BME280;3283;52.330;9.772;2023-07-28T07:22:19;99824.06;;;19.58;100.00
6500;BME280;3283;52.330;9.772;2023-07-28T07:24:45;99825.38;;;19.65;100.00
6500;BME280;3283;52.330;9.772;2023-07-28T07:27:10;99818.25;;;19.66;100.00
6500;BME280;3283;52.330;9.772;2023-07-28T07:29:37;99814.06;;;19.62;100.00
6500;BME280;3283;52.330;9.772;2023-07-28T07:32:04;99824.03;;;19.72;100.00
6500;BME280;3283;52.330;9.772;2023-07-28T07:34:30;99829.19;;;19.90;100.00
6500;BME280;3283;52.330;9.772;2023-07-28T07:36:56;99817.28;;;20.08;100.00
6500;BME280;3283;52.330;9.772;2023-07-28T07:39:22;99808.53;;;20.06;100.00
6500;BME280;3283;52.330;9.772;2023-07-28T07:41:48;99801.41;;;19.92;100.00
6500;BME280;3283;52.330;9.772;2023-07-28T07:44:13;99815.00;;;20.16;100.00
6500;BME280;3283;52.330;9.772;2023-07-28T07:46:39;99811.00;;;20.36;100.00
6500;BME280;3283;52.330;9.772;2023-07-28T07:49:04;99794.78;;;20.66;100.00
6500;BME280;3283;52.330;9.772;2023-07-28T07:51:31;99803.66;;;20.67;100.00
6500;BME280;3283;52.330;9.772;2023-07-28T07:54:02;99804.72;;;20.77;100.00
6500;BME280;3283;52.330;9.772;2023-07-28T07:56:28;99809.00;;;20.67;100.00
6500;BME280;3283;52.330;9.772;2023-07-28T07:58:53;99806.44;;;20.65;100.00
6500;BME280;3283;52.330;9.772;2023-07-28T08:01:18;99812.19;;;20.72;100.00
6500;BME280;3283;52.330;9.772;2023-07-28T08:03:44;99799.81;;;20.83;100.00
6500;BME280;3283;52.330;9.772;2023-07-28T08:06:10;99804.97;;;21.12;100.00
6500;BME280;3283;52.330;9.772;2023-07-28T08:08:37;99804.59;;;21.31;100.00
6500;BME280;3283;52.330;9.772;2023-07-28T08:11:03;99799.50;;;21.13;100.00
6500;BME280;3283;52.330;9.772;2023-07-28T08:13:28;99810.34;;;21.25;100.00
6500;BME280;3283;52.330;9.772;2023-07-28T08:15:54;99817.00;;;21.45;100.00
6500;BME280;3283;52.330;9.772;2023-07-28T08:18:19;99807.69;;;21.50;100.00
6500;BME280;3283;52.330;9.772;2023-07-28T08:20:45;99811.41;;;21.60;100.00
6500;BME280;3283;52.330;9.772;2023-07-28T08:23:10;99807.34;;;21.55;100.00
6500;BME280;3283;52.330;9.772;2023-07-28T08:25:36;99807.75;;;21.61;100.00
6500;BME280;3283;52.330;9.772;2023-07-28T08:28:02;99815.22;;;21.82;100.00
6500;BME280;3283;52.330;9.772;2023-07-28T08:30:27;99818.53;;;21.85;100.00
6500;BME280;3283;52.330;9.772;2023-07-28T08:32:52;99813.59;;;21.92;100.00
6500;BME280;3283;52.330;9.772;2023-07-28T08:35:18;99819.13;;;22.02;100.00
6500;BME280;3283;52.330;9.772;2023-07-28T08:37:43;99819.41;;;21.86;100.00
6500;BME280;3283;52.330;9.772;2023-07-28T08:40:09;99830.03;;;21.49;100.00
6500;BME280;3283;52.330;9.772;2023-07-28T08:42:37;99826.72;;;21.58;100.00
6500;BME280;3283;52.330;9.772;2023-07-28T08:45:04;99832.28;;;21.55;100.00
6500;BME280;3283;52.330;9.772;2023-07-28T08:47:34;99831.75;;;21.25;100.00
6500;BME280;3283;52.330;9.772;2023-07-28T08:49:59;99827.72;;;21.32;100.00
6500;BME280;3283;52.330;9.772;2023-07-28T08:52:25;99831.25;;;21.32;100.00
6500;BME280;3283;52.330;9.772;2023-07-28T08:54:50;99839.56;;;21.15;100.00
6500;BME280;3283;52.330;9.772;2023-07-28T08:57:16;99844.69;;;21.05;100.00
6500;BME280;3283;52.330;9.772;2023-07-28T08:59:41;99830.47;;;21.18;100.00
6500;BME280;3283;52.330;9.772;2023-07-28T09:02:14;99836.47;;;21.34;100.00
6500;BME280;3283;52.330;9.772;2023-07-28T09:04:40;99838.97;;;21.37;100.00
6500;BME280;3283;52.330;9.772;2023-07-28T09:07:06;99839.28;;;21.45;100.00
6500;BME280;3283;52.330;9.772;2023-07-28T09:09:32;99841.56;;;21.88;100.00
6500;BME280;3283;52.330;9.772;2023-07-28T09:11:59;99832.97;;;22.08;100.00
6500;BME280;3283;52.330;9.772;2023-07-28T09:14:24;99831.69;;;22.14;100.00
6500;BME280;3283;52.330;9.772;2023-07-28T09:16:50;99843.09;;;22.29;100.00
6500;BME280;3283;52.330;9.772;2023-07-28T09:19:15;99838.44;;;22.79;100.00
6500;BME280;3283;52.330;9.772;2023-07-28T09:21:44;99835.22;;;22.62;100.00
6500;BME280;3283;52.330;9.772;2023-07-28T09:24:13;99834.66;;;23.16;100.00
6500;BME280;3283;52.330;9.772;2023-07-28T09:26:46;99840.75;;;23.07;100.00
6500;BME280;3283;52.330;9.772;2023-07-28T09:29:18;99847.09;;;22.82;100.00
6500;BME280;3283;52.330;9.772;2023-07-28T09:31:48;99843.22;;;22.27;100.00
6500;BME280;3283;52.330;9.772;2023-07-28T09:34:24;99843.03;;;22.41;100.00
6500;BME280;3283;52.330;9.772;2023-07-28T09:36:49;99842.03;;;22.90;100.00
6500;BME280;3283;52.330;9.772;2023-07-28T09:39:15;99832.13;;;23.26;100.00
6500;BME280;3283;52.330;9.772;2023-07-28T09:41:42;99835.25;;;23.09;100.00
6500;BME280;3283;52.330;9.772;2023-07-28T09:44:10;99843.75;;;22.91;100.00
6500;BME280;3283;52.330;9.772;2023-07-28T09:46:35;99834.63;;;22.94;100.00
6500;BME280;3283;52.330;9.772;2023-07-28T09:49:05;99829.66;;;23.23;100.00
6500;BME280;3283;52.330;9.772;2023-07-28T09:51:33;99840.78;;;23.29;100.00
6500;BME280;3283;52.330;9.772;2023-07-28T09:54:05;99847.56;;;23.00;100.00
6500;BME280;3283;52.330;9.772;2023-07-28T09:56:31;99846.56;;;22.66;100.00
6500;BME280;3283;52.330;9.772;2023-07-28T09:58:58;99856.41;;;22.89;100.00
6500;BME280;3283;52.330;9.772;2023-07-28T10:01:24;99850.75;;;23.63;100.00
6500;BME280;3283;52.330;9.772;2023-07-28T10:03:50;99848.78;;;23.87;100.00
6500;BME280;3283;52.330;9.772;2023-07-28T10:06:17;99842.53;;;23.42;100.00
6500;BME280;3283;52.330;9.772;2023-07-28T10:08:44;99852.81;;;23.70;100.00
6500;BME280;3283;52.330;9.772;2023-07-28T10:11:11;99855.09;;;24.08;100.00
6500;BME280;3283;52.330;9.772;2023-07-28T10:13:42;99854.00;;;23.89;100.00
6500;BME280;3283;52.330;9.772;2023-07-28T10:16:08;99858.31;;;23.69;100.00
6500;BME280;3283;52.330;9.772;2023-07-28T10:18:39;99850.44;;;23.21;100.00
6500;BME280;3283;52.330;9.772;2023-07-28T10:21:09;99848.25;;;23.37;100.00
6500;BME280;3283;52.330;9.772;2023-07-28T10:23:39;99856.06;;;23.40;100.00
6500;BME280;3283;52.330;9.772;2023-07-28T10:26:05;99851.47;;;23.65;100.00
6500;BME280;3283;52.330;9.772;2023-07-28T10:28:38;99856.31;;;24.16;100.00
6500;BME280;3283;52.330;9.772;2023-07-28T10:31:07;99849.88;;;24.61;100.00
6500;BME280;3283;52.330;9.772;2023-07-28T10:33:40;99863.47;;;24.49;100.00
6500;BME280;3283;52.330;9.772;2023-07-28T10:39:00;99866.31;;;23.46;100.00
6500;BME280;3283;52.330;9.772;2023-07-28T10:41:25;99866.66;;;23.30;100.00
6500;BME280;3283;52.330;9.772;2023-07-28T10:43:51;99869.50;;;23.40;100.00
6500;BME280;3283;52.330;9.772;2023-07-28T10:46:18;99866.69;;;23.42;100.00
6500;BME280;3283;52.330;9.772;2023-07-28T10:48:46;99866.50;;;23.10;100.00
6500;BME280;3283;52.330;9.772;2023-07-28T10:51:20;99868.34;;;22.85;100.00
6500;BME280;3283;52.330;9.772;2023-07-28T10:53:45;99884.22;;;22.64;100.00
6500;BME280;3283;52.330;9.772;2023-07-28T10:56:12;99871.25;;;22.82;100.00
6500;BME280;3283;52.330;9.772;2023-07-28T10:58:37;99867.78;;;23.50;100.00
6500;BME280;3283;52.330;9.772;2023-07-28T11:01:02;99876.63;;;23.86;100.00
6500;BME280;3283;52.330;9.772;2023-07-28T11:03:28;99872.81;;;24.33;100.00
6500;BME280;3283;52.330;9.772;2023-07-28T11:05:54;99873.00;;;24.85;100.00
6500;BME280;3283;52.330;9.772;2023-07-28T11:08:20;99869.66;;;25.25;100.00
6500;BME280;3283;52.330;9.772;2023-07-28T11:10:45;99864.13;;;25.47;100.00
6500;BME280;3283;52.330;9.772;2023-07-28T11:13:11;99862.06;;;25.60;100.00
6500;BME280;3283;52.330;9.772;2023-07-28T11:15:37;99881.47;;;25.01;100.00
6500;BME280;3283;52.330;9.772;2023-07-28T11:18:05;99875.81;;;24.51;100.00
6500;BME280;3283;52.330;9.772;2023-07-28T11:20:31;99868.53;;;24.08;100.00
6500;BME280;3283;52.330;9.772;2023-07-28T11:23:06;99874.59;;;24.44;100.00
6500;BME280;3283;52.330;9.772;2023-07-28T11:25:33;99871.03;;;24.87;100.00
6500;BME280;3283;52.330;9.772;2023-07-28T11:28:01;99856.38;;;25.33;100.00
6500;BME280;3283;52.330;9.772;2023-07-28T11:30:26;99862.47;;;25.35;100.00
6500;BME280;3283;52.330;9.772;2023-07-28T18:46:03;99965.03;;;23.67;100.00
6500;BME280;3283;52.330;9.772;2023-07-28T18:48:28;99958.34;;;23.61;100.00
6500;BME280;3283;52.330;9.772;2023-07-28T18:50:53;99967.69;;;23.55;100.00
6500;BME280;3283;52.330;9.772;2023-07-28T18:53:20;99966.44;;;23.48;100.00
6500;BME280;3283;52.330;9.772;2023-07-28T18:55:45;99965.41;;;23.38;100.00
6500;BME280;3283;52.330;9.772;2023-07-28T18:58:11;99969.78;;;23.28;100.00
6500;BME280;3283;52.330;9.772;2023-07-28T19:00:36;99963.53;;;23.16;100.00
